Time;durP1;ratioP1;P1;durP2;ratioP2;P2;SDS_P1;SDS_P2;PMS_P1;PMS_P2;Temp;Humidity;BMP_temperature;BMP_pressure;BME280_temperature;BME280_humidity;BME280_pressure;Samples;Min_cycle;Max_cycle;Signal;HPM_P1;HPM_P2
2023/09/30 00:02:00;;;;;;;18.27;9.48;;;;;;;15.39;74.18;99837.16;5009241;28;20076;-44
2023/09/30 00:04:27;;;;;;;19.85;9.98;;;;;;;15.38;74.59;99847.72;4991624;28;20535;-46
2023/09/30 00:06:53;;;;;;;18.42;9.40;;;;;;;15.35;74.53;99843.47;5009101;28;20069;-44
2023/09/30 00:09:19;;;;;;;24.05;10.32;;;;;;;15.32;74.72;99835.78;5009359;28;20068;-47
2023/09/30 00:11:45;;;;;;;19.23;9.85;;;;;;;15.30;74.63;99839.41;4956709;28;20054;-46
2023/09/30 00:14:11;;;;;;;22.83;10.80;;;;;;;15.22;74.82;99843.28;4991272;28;20577;-44
2023/09/30 00:16:37;;;;;;;23.33;11.07;;;;;;;15.23;75.17;99849.34;5008569;28;20097;-48
2023/09/30 00:19:03;;;;;;;22.75;11.15;;;;;;;15.03;74.99;99820.69;5024204;28;20045;-45
2023/09/30 00:21:29;;;;;;;22.05;10.82;;;;;;;15.19;75.20;99842.56;4992489;28;20548;-45
2023/09/30 00:23:55;;;;;;;19.65;10.35;;;;;;;14.84;75.20;99790.22;5006480;28;20123;-44
2023/09/30 00:26:22;;;;;;;18.08;10.52;;;;;;;15.11;75.43;99836.88;5023958;28;20203;-44
2023/09/30 00:28:48;;;;;;;19.27;9.43;;;;;;;15.08;75.51;99837.03;5007730;28;20042;-47
2023/09/30 00:31:14;;;;;;;19.58;9.30;;;;;;;15.06;75.53;99837.13;5022447;28;20104;-44
2023/09/30 00:33:39;;;;;;;18.35;9.57;;;;;;;15.04;75.99;99838.09;5007162;28;20168;-44
2023/09/30 00:36:09;;;;;;;15.88;9.40;;;;;;;14.68;75.81;99786.66;5020789;28;20045;-50
2023/09/30 00:38:39;;;;;;;18.60;9.27;;;;;;;14.98;75.87;99844.50;5015050;28;20515;-48
2023/09/30 00:41:09;;;;;;;18.88;9.23;;;;;;;14.97;76.15;99841.97;4994397;28;20133;-47
2023/09/30 00:43:35;;;;;;;18.45;9.93;;;;;;;14.95;76.14;99835.94;4949669;28;20107;-44
2023/09/30 00:46:26;;;;;;;17.98;9.63;;;;;;;14.93;76.11;99840.41;5021169;28;20037;-45
2023/09/30 00:48:54;;;;;;;14.82;9.25;;;;;;;14.89;76.36;99839.72;5000669;28;20499;-46
2023/09/30 00:51:21;;;;;;;22.92;9.88;;;;;;;14.90;76.22;99832.72;5007417;28;20034;-44
2023/09/30 00:53:47;;;;;;;20.52;9.90;;;;;;;14.88;76.42;99835.41;5006501;28;20100;-49
2023/09/30 00:56:13;;;;;;;17.77;10.20;;;;;;;14.87;76.43;99831.06;4973798;28;20033;-48
2023/09/30 00:58:39;;;;;;;17.13;10.48;;;;;;;14.86;76.73;99831.19;5007374;28;20073;-46
2023/09/30 01:01:05;;;;;;;21.40;9.75;;;;;;;14.83;76.74;99829.53;4989325;28;20037;-47
2023/09/30 01:03:31;;;;;;;16.55;9.85;;;;;;;14.84;76.93;99828.63;4987268;28;20063;-47
2023/09/30 01:05:57;;;;;;;24.83;10.48;;;;;;;14.45;76.92;99768.63;5004959;28;20038;-46
2023/09/30 01:08:23;;;;;;;16.85;9.60;;;;;;;14.79;77.23;99828.84;5008403;28;20505;-46
2023/09/30 01:10:50;;;;;;;19.98;9.23;;;;;;;14.75;77.18;99823.84;5008838;28;20163;-45
2023/09/30 01:13:16;;;;;;;16.48;9.60;;;;;;;14.78;76.86;99826.31;5026635;28;20041;-45
2023/09/30 01:15:42;;;;;;;17.10;9.07;;;;;;;14.77;77.18;99822.84;4984450;28;20057;-46
2023/09/30 01:18:08;;;;;;;22.67;10.05;;;;;;;14.76;77.09;99817.66;5017874;28;20053;-45
2023/09/30 01:20:34;;;;;;;15.43;8.75;;;;;;;14.75;77.19;99826.47;4994306;28;20050;-48
2023/09/30 01:23:01;;;;;;;15.75;9.63;;;;;;;14.74;77.01;99822.16;5009664;28;20046;-45
2023/09/30 01:25:27;;;;;;;13.88;8.98;;;;;;;14.72;76.99;99813.53;5007396;28;20050;-44
2023/09/30 01:27:54;;;;;;;20.52;8.60;;;;;;;14.51;77.28;99786.63;5010878;28;20053;-49
2023/09/30 01:30:22;;;;;;;16.45;9.90;;;;;;;14.67;77.47;99818.97;5010754;28;20552;-46
2023/09/30 01:32:48;;;;;;;15.93;9.00;;;;;;;14.47;77.40;99790.31;5010134;28;20048;-47
2023/09/30 01:35:15;;;;;;;18.95;9.75;;;;;;;14.63;77.69;99813.97;5006599;28;20045;-45
2023/09/30 01:37:42;;;;;;;15.98;9.43;;;;;;;14.60;77.81;99817.56;5026837;28;20073;-48
2023/09/30 01:40:11;;;;;;;20.90;8.73;;;;;;;14.62;77.66;99820.13;4991405;28;20058;-48
2023/09/30 01:42:38;;;;;;;15.60;8.93;;;;;;;14.60;77.51;99816.75;5007317;28;20041;-45
2023/09/30 01:45:05;;;;;;;18.20;8.90;;;;;;;14.43;77.77;99788.78;5026677;28;20468;-45
2023/09/30 01:47:31;;;;;;;15.23;8.95;;;;;;;14.56;77.57;99810.81;4997378;28;20140;-44
2023/09/30 01:49:59;;;;;;;17.33;8.57;;;;;;;14.56;77.69;99812.56;5026686;28;20130;-45
2023/09/30 01:52:25;;;;;;;17.30;8.73;;;;;;;14.54;77.72;99817.91;5015091;28;20052;-46
2023/09/30 01:54:51;;;;;;;13.50;8.52;;;;;;;14.55;77.82;99818.75;5028510;28;20464;-46
2023/09/30 01:57:18;;;;;;;15.90;8.65;;;;;;;14.53;78.01;99810.13;5026566;28;20148;-48
2023/09/30 01:59:44;;;;;;;23.50;9.25;;;;;;;14.49;77.98;99814.66;5013077;28;20325;-45
2023/09/30 02:02:10;;;;;;;20.92;9.40;;;;;;;14.46;77.89;99812.16;5009116;28;20042;-44
2023/09/30 02:04:36;;;;;;;13.25;8.05;;;;;;;14.42;78.27;99808.00;5011518;28;20050;-44
2023/09/30 02:07:02;;;;;;;17.67;8.80;;;;;;;14.40;78.27;99815.06;4993617;28;20077;-47
2023/09/30 02:09:28;;;;;;;14.27;8.23;;;;;;;14.39;78.29;99810.78;5026305;28;20073;-45
2023/09/30 02:11:55;;;;;;;17.00;9.48;;;;;;;14.36;78.56;99803.91;5010870;28;20551;-44
2023/09/30 02:14:22;;;;;;;17.58;8.68;;;;;;;14.35;78.24;99810.03;5011200;28;20045;-46
2023/09/30 02:16:48;;;;;;;18.13;8.90;;;;;;;14.34;78.59;99807.50;5025716;28;20088;-45
2023/09/30 02:19:14;;;;;;;16.05;9.38;;;;;;;14.31;78.42;99803.25;5009784;28;20050;-46
2023/09/30 02:21:40;;;;;;;18.65;8.25;;;;;;;14.30;78.75;99798.09;5025369;28;20533;-45
2023/09/30 02:24:07;;;;;;;15.07;8.27;;;;;;;14.28;78.66;99803.41;5009732;28;20488;-45
2023/09/30 02:26:33;;;;;;;17.45;8.40;;;;;;;14.27;78.88;99798.25;4993396;28;20056;-44
2023/09/30 02:28:59;;;;;;;16.67;8.60;;;;;;;14.25;78.88;99798.31;5009763;28;20046;-44
2023/09/30 02:31:25;;;;;;;18.00;9.52;;;;;;;14.23;79.15;99801.94;5010881;28;20037;-46
2023/09/30 02:33:51;;;;;;;23.17;9.48;;;;;;;14.20;79.15;99792.47;5010262;28;20038;-46
2023/09/30 02:36:17;;;;;;;18.15;8.65;;;;;;;14.19;79.15;99790.75;5023053;28;20252;-49
2023/09/30 02:38:43;;;;;;;17.50;8.95;;;;;;;14.16;79.43;99795.28;5008437;28;20045;-47
2023/09/30 02:41:09;;;;;;;16.17;8.18;;;;;;;14.09;79.31;99783.41;5009441;28;20500;-47
2023/09/30 02:43:35;;;;;;;17.33;7.60;;;;;;;14.17;79.35;99797.84;5006686;28;20460;-44
2023/09/30 02:46:01;;;;;;;16.25;8.85;;;;;;;14.17;79.38;99791.78;5039273;28;20037;-44
2023/09/30 02:48:27;;;;;;;17.25;8.73;;;;;;;14.15;79.36;99802.28;5010198;28;20048;-44
2023/09/30 02:50:55;;;;;;;22.95;9.40;;;;;;;14.13;79.80;99796.28;5025267;28;20145;-43
2023/09/30 02:53:22;;;;;;;19.77;9.43;;;;;;;14.11;79.40;99790.28;4991787;28;20518;-44
2023/09/30 02:55:49;;;;;;;18.98;9.02;;;;;;;14.10;79.67;99792.97;5022727;28;20049;-45
2023/09/30 02:58:15;;;;;;;17.25;8.90;;;;;;;14.08;79.84;99792.22;4992182;28;20041;-44
2023/09/30 03:00:41;;;;;;;22.77;10.65;;;;;;;14.06;79.85;99788.81;5007712;28;20442;-43
2023/09/30 03:03:08;;;;;;;24.10;10.82;;;;;;;13.86;80.08;99753.16;5013634;28;20069;-45
2023/09/30 03:05:35;;;;;;;28.98;11.05;;;;;;;14.04;79.88;99781.03;5021650;28;20740;-49
2023/09/30 03:08:01;;;;;;;23.20;10.65;;;;;;;14.02;80.13;99785.50;4991546;28;20045;-45
2023/09/30 03:10:28;;;;;;;22.40;10.82;;;;;;;14.01;80.09;99781.19;4991668;28;20044;-44
2023/09/30 03:13:03;;;;;;;20.80;10.25;;;;;;;13.99;80.21;99778.63;5007434;28;20037;-46
2023/09/30 03:15:32;;;;;;;16.15;8.68;;;;;;;14.00;80.35;99780.34;5024504;28;20095;-46
2023/09/30 03:17:59;;;;;;;21.65;8.82;;;;;;;13.98;80.45;99778.69;4989411;28;20128;-48
2023/09/30 03:20:26;;;;;;;16.90;8.25;;;;;;;13.80;80.55;99754.28;5009526;28;20508;-46
2023/09/30 03:22:52;;;;;;;16.83;8.60;;;;;;;13.95;80.44;99771.84;5005003;28;20128;-46
2023/09/30 03:25:20;;;;;;;11.82;7.80;;;;;;;13.96;80.44;99778.78;5005749;28;20056;-49
2023/09/30 03:27:47;;;;;;;19.73;9.15;;;;;;;13.97;80.41;99780.47;5007911;28;20057;-47
2023/09/30 03:30:17;;;;;;;17.58;9.55;;;;;;;13.99;80.42;99783.00;5006066;28;20112;-45
2023/09/30 03:32:43;;;;;;;14.35;8.43;;;;;;;13.72;80.56;99732.88;4973483;28;20049;-45
2023/09/30 03:35:10;;;;;;;19.55;9.07;;;;;;;14.00;80.50;99777.72;5008367;28;20088;-45
2023/09/30 03:37:37;;;;;;;18.70;9.65;;;;;;;13.86;80.56;99756.63;5004153;28;20049;-46
2023/09/30 03:40:11;;;;;;;21.55;9.50;;;;;;;14.02;80.25;99779.41;4991652;28;20084;-45
2023/09/30 03:42:39;;;;;;;16.73;8.88;;;;;;;14.00;80.73;99780.34;5007537;28;20045;-46
2023/09/30 03:45:09;;;;;;;14.43;8.68;;;;;;;13.82;80.57;99744.59;5030186;28;20095;-45
2023/09/30 03:47:36;;;;;;;17.10;9.25;;;;;;;14.04;80.48;99780.19;5027644;28;20065;-46
2023/09/30 03:50:03;;;;;;;17.60;9.23;;;;;;;14.05;80.43;99774.03;5007640;28;20052;-45
2023/09/30 03:52:34;;;;;;;15.70;9.25;;;;;;;14.06;80.25;99788.81;5008892;28;20045;-46
2023/09/30 03:55:04;;;;;;;16.17;9.18;;;;;;;14.09;80.22;99780.81;5009379;28;20095;-46
2023/09/30 03:57:32;;;;;;;18.25;9.38;;;;;;;14.12;80.28;99778.06;4999575;28;20437;-44
2023/09/30 04:00:00;;;;;;;11.40;8.23;;;;;;;14.13;80.34;99775.34;5007944;28;20544;-48
2023/09/30 04:02:27;;;;;;;16.65;8.95;;;;;;;14.16;80.15;99767.38;5007371;28;20096;-45
2023/09/30 04:04:55;;;;;;;18.30;8.63;;;;;;;14.20;80.12;99768.06;4975626;28;20061;-47
2023/09/30 04:07:27;;;;;;;12.80;7.83;;;;;;;14.20;79.87;99766.31;4991874;28;20049;-50
2023/09/30 04:09:56;;;;;;;17.02;8.45;;;;;;;14.10;79.86;99738.06;5007305;28;20391;-45
2023/09/30 04:12:25;;;;;;;18.23;8.65;;;;;;;14.32;79.69;99775.34;5004903;28;20421;-43
2023/09/30 04:14:52;;;;;;;15.30;8.77;;;;;;;14.34;79.65;99774.34;5008129;28;20064;-44
2023/09/30 04:17:18;;;;;;;14.60;8.00;;;;;;;14.37;79.21;99771.63;5005775;28;20042;-47
2023/09/30 04:19:44;;;;;;;15.48;8.55;;;;;;;14.32;79.24;99757.88;5007684;28;20816;-43
2023/09/30 04:22:09;;;;;;;17.10;8.48;;;;;;;14.43;79.17;99767.88;5004790;28;20608;-45
2023/09/30 04:24:35;;;;;;;16.27;7.93;;;;;;;14.51;78.93;99770.09;5005654;28;20485;-44
2023/09/30 04:27:04;;;;;;;17.05;8.45;;;;;;;14.53;78.63;99770.88;5008133;28;20049;-44
2023/09/30 04:29:30;;;;;;;16.48;9.63;;;;;;;14.61;78.57;99768.72;5005560;28;20038;-44
2023/09/30 04:31:56;;;;;;;20.58;9.23;;;;;;;14.63;78.40;99774.72;5007016;28;20033;-48
2023/09/30 04:34:22;;;;;;;15.85;8.40;;;;;;;14.68;78.36;99768.34;4986488;28;20049;-47
2023/09/30 04:36:48;;;;;;;17.85;8.77;;;;;;;14.72;78.16;99775.09;5018964;28;20525;-44
2023/09/30 04:39:15;;;;;;;16.92;9.18;;;;;;;14.58;77.89;99738.31;4989621;28;20050;-44
2023/09/30 04:41:41;;;;;;;15.55;8.70;;;;;;;14.80;77.60;99785.22;5006132;28;20037;-44
2023/09/30 04:44:09;;;;;;;16.38;8.43;;;;;;;14.70;77.50;99756.03;5004630;28;20208;-44
2023/09/30 04:46:40;;;;;;;14.55;7.90;;;;;;;14.91;77.23;99772.44;5009063;28;20041;-45
2023/09/30 04:49:08;;;;;;;17.63;8.60;;;;;;;14.95;76.93;99778.34;4997744;28;20048;-43
2023/09/30 04:51:34;;;;;;;16.42;8.52;;;;;;;14.98;76.99;99778.19;4973720;28;20072;-46
2023/09/30 04:54:00;;;;;;;13.43;7.82;;;;;;;15.02;76.50;99788.41;5008458;28;20049;-45
2023/09/30 04:56:26;;;;;;;16.75;8.52;;;;;;;15.04;76.23;99778.72;4988296;28;20054;-44
2023/09/30 04:58:52;;;;;;;18.80;8.93;;;;;;;15.09;76.10;99781.97;5004085;28;20049;-44
2023/09/30 05:01:18;;;;;;;15.82;7.97;;;;;;;15.16;75.99;99770.25;4989444;28;20041;-47
2023/09/30 05:03:48;;;;;;;17.67;9.20;;;;;;;15.21;75.79;99773.47;5004979;28;20547;-48
2023/09/30 05:06:14;;;;;;;20.88;9.77;;;;;;;15.23;75.19;99779.47;4991160;28;20096;-47
2023/09/30 05:08:40;;;;;;;23.33;9.95;;;;;;;15.32;75.10;99775.53;5005750;28;20042;-46
2023/09/30 05:11:05;;;;;;;19.52;9.88;;;;;;;15.44;74.76;99771.44;5006395;28;20046;-45
2023/09/30 05:13:33;;;;;;;15.00;8.35;;;;;;;15.53;74.47;99765.72;5004762;28;20038;-46
2023/09/30 05:16:00;;;;;;;23.27;9.30;;;;;;;15.58;74.24;99771.56;5008031;28;20152;-44
2023/09/30 05:18:25;;;;;;;21.08;10.05;;;;;;;15.49;73.77;99738.78;5003329;28;20512;-45
2023/09/30 05:20:51;;;;;;;22.70;9.63;;;;;;;15.81;73.21;99776.41;5007473;28;20046;-45
2023/09/30 05:23:18;;;;;;;18.20;10.68;;;;;;;15.92;72.71;99770.59;4989499;28;20537;-45
2023/09/30 05:25:44;;;;;;;18.27;8.82;;;;;;;16.09;72.00;99771.34;5005901;28;20038;-46
2023/09/30 05:28:11;;;;;;;16.73;9.23;;;;;;;16.22;71.16;99758.41;5006642;28;20462;-45
2023/09/30 05:30:37;;;;;;;14.85;8.30;;;;;;;16.42;70.19;99768.63;5008206;28;20521;-45
2023/09/30 05:33:03;;;;;;;18.00;8.75;;;;;;;16.71;69.61;99766.97;5007768;28;20080;-46
2023/09/30 05:35:32;;;;;;;16.52;8.80;;;;;;;16.90;68.34;99730.81;4976904;28;20053;-46
2023/09/30 05:37:58;;;;;;;13.95;8.57;;;;;;;17.38;67.05;99754.25;5003746;28;20081;-45
2023/09/30 05:40:26;;;;;;;15.88;8.18;;;;;;;17.88;65.43;99764.28;5001801;28;20061;-49
2023/09/30 05:42:54;;;;;;;16.13;7.85;;;;;;;18.25;64.11;99752.25;5022380;28;20512;-48
2023/09/30 05:45:23;;;;;;;17.70;7.80;;;;;;;18.57;62.96;99757.16;5012272;28;20041;-47
2023/09/30 05:47:52;;;;;;;19.88;8.88;;;;;;;18.69;61.80;99729.13;5019951;28;20827;-48
2023/09/30 05:50:23;;;;;;;17.98;8.70;;;;;;;19.04;60.72;99726.75;5006200;28;20537;-46
2023/09/30 05:52:50;;;;;;;13.90;7.80;;;;;;;19.52;59.32;99734.91;5034181;28;20044;-45
2023/09/30 05:55:20;;;;;;;13.63;8.95;;;;;;;19.88;58.21;99753.38;5019160;28;20100;-45
2023/09/30 05:57:49;;;;;;;13.90;8.05;;;;;;;20.08;56.92;99729.03;5009077;28;20044;-49
2023/09/30 06:00:28;;;;;;;18.50;8.15;;;;;;;20.59;55.84;99742.88;5010091;28;20046;-47
2023/09/30 06:02:54;;;;;;;16.95;8.20;;;;;;;20.83;54.94;99748.09;5007210;28;20041;-48
2023/09/30 06:05:19;;;;;;;16.73;8.40;;;;;;;21.16;53.77;99735.94;5004924;28;20042;-46
2023/09/30 06:07:46;;;;;;;14.90;8.57;;;;;;;21.35;52.88;99723.84;4990915;28;20119;-48
2023/09/30 06:10:15;;;;;;;12.43;8.00;;;;;;;21.92;52.03;99744.84;5022673;28;20057;-50
2023/09/30 06:12:42;;;;;;;16.38;9.00;;;;;;;22.21;50.78;99733.72;5028486;28;20045;-46
2023/09/30 06:15:08;;;;;;;11.35;8.07;;;;;;;22.57;50.02;99738.66;5026311;28;20104;-45
2023/09/30 06:17:34;;;;;;;14.48;8.77;;;;;;;23.23;48.89;99742.78;4993710;28;20042;-48
2023/09/30 06:20:08;;;;;;;12.23;8.32;;;;;;;23.49;47.79;99737.91;5010795;28;20345;-50
2023/09/30 06:22:34;;;;;;;14.30;8.25;;;;;;;23.93;46.92;99725.19;5010412;28;20076;-46
2023/09/30 06:25:00;;;;;;;12.00;7.78;;;;;;;24.48;45.91;99729.91;5008787;28;20041;-48
2023/09/30 06:27:26;;;;;;;16.80;8.30;;;;;;;24.65;45.46;99730.19;5022229;28;20044;-46
2023/09/30 06:29:52;;;;;;;14.02;8.55;;;;;;;25.40;44.22;99734.66;5008401;28;20076;-47
2023/09/30 06:32:20;;;;;;;13.70;8.85;;;;;;;25.83;43.33;99726.09;4971876;28;20038;-48
2023/09/30 06:34:45;;;;;;;13.23;8.70;;;;;;;26.42;41.79;99726.44;5007144;28;20165;-44
2023/09/30 06:37:11;;;;;;;12.75;8.90;;;;;;;25.80;42.02;99727.25;4991496;28;20541;-46
2023/09/30 06:39:37;;;;;;;13.65;8.77;;;;;;;25.81;41.83;99701.41;5023451;28;20056;-47
2023/09/30 06:42:03;;;;;;;16.00;8.70;;;;;;;25.88;41.50;99726.50;5010528;28;20038;-44
2023/09/30 06:44:31;;;;;;;15.98;9.23;;;;;;;25.41;41.84;99686.59;5024966;28;20136;-46
2023/09/30 06:46:56;;;;;;;22.20;9.15;;;;;;;25.61;42.01;99719.34;4981488;28;20046;-46
2023/09/30 06:49:22;;;;;;;15.20;8.60;;;;;;;25.49;42.07;99705.34;4966212;28;20038;-46
2023/09/30 06:51:48;;;;;;;14.10;9.55;;;;;;;25.23;42.47;99713.13;5013452;28;20325;-47
2023/09/30 06:54:14;;;;;;;18.52;9.13;;;;;;;25.40;42.02;99711.53;5023493;28;20076;-46
2023/09/30 06:56:41;;;;;;;14.40;9.18;;;;;;;25.81;41.76;99720.06;4995283;28;20049;-50
2023/09/30 06:59:07;;;;;;;14.05;8.93;;;;;;;26.45;40.50;99706.63;5007749;28;20034;-48
2023/09/30 07:01:32;;;;;;;22.90;9.82;;;;;;;26.50;40.38;99693.66;5009134;28;20276;-49
2023/09/30 07:03:58;;;;;;;14.35;9.55;;;;;;;26.90;39.90;99707.31;5006836;28;20038;-47
2023/09/30 07:06:24;;;;;;;16.88;9.40;;;;;;;27.72;38.70;99697.97;5021216;28;20072;-47
2023/09/30 07:08:51;;;;;;;18.23;11.05;;;;;;;27.71;38.32;99690.94;4983806;28;20060;-47
2023/09/30 07:11:16;;;;;;;14.30;9.05;;;;;;;27.61;38.19;99695.59;5017663;28;20046;-47
2023/09/30 07:13:42;;;;;;;14.23;9.00;;;;;;;26.79;39.00;99691.56;5018554;28;20041;-45
2023/09/30 07:16:08;;;;;;;12.80;9.50;;;;;;;27.01;39.00;99700.09;5009321;28;20521;-44
2023/09/30 07:18:34;;;;;;;17.75;9.52;;;;;;;27.07;38.80;99694.94;5008890;28;20052;-47
2023/09/30 07:21:01;;;;;;;15.52;9.02;;;;;;;27.26;38.84;99693.91;5000210;28;20034;-44
2023/09/30 07:23:30;;;;;;;16.92;9.30;;;;;;;27.37;38.61;99682.94;5024774;28;20060;-44
2023/09/30 07:25:57;;;;;;;15.30;9.32;;;;;;;27.09;39.10;99703.63;5024259;28;20513;-50
2023/09/30 07:28:23;;;;;;;13.45;9.35;;;;;;;27.09;38.95;99644.91;5024189;28;20044;-45
2023/09/30 07:30:48;;;;;;;15.60;8.93;;;;;;;27.99;37.90;99664.81;5009046;28;20041;-52
2023/09/30 07:33:14;;;;;;;16.70;8.80;;;;;;;28.80;36.56;99687.13;5009224;28;20053;-45
2023/09/30 07:35:40;;;;;;;12.25;8.65;;;;;;;28.66;36.31;99687.78;5009901;28;20046;-46
2023/09/30 07:38:06;;;;;;;15.40;8.70;;;;;;;28.07;36.94;99670.16;5004726;28;20417;-45
2023/09/30 07:40:32;;;;;;;12.52;9.48;;;;;;;28.13;37.39;99678.38;5019905;28;20046;-42
2023/09/30 07:42:58;;;;;;;15.63;8.80;;;;;;;28.57;36.64;99678.09;4987976;28;20050;-46
2023/09/30 07:45:24;;;;;;;20.88;8.88;;;;;;;29.34;35.82;99684.69;5021695;28;20088;-40
2023/09/30 07:47:51;;;;;;;12.60;8.45;;;;;;;29.38;35.12;99669.94;4989013;28;20132;-44
2023/09/30 07:50:17;;;;;;;10.68;8.15;;;;;;;29.60;34.53;99679.91;5007432;28;20061;-45
2023/09/30 07:52:43;;;;;;;15.07;7.85;;;;;;;28.94;35.38;99680.25;5017637;28;20052;-49
2023/09/30 07:55:09;;;;;;;16.08;8.35;;;;;;;28.70;35.69;99678.41;5017448;28;20418;-49
2023/09/30 07:57:36;;;;;;;12.23;7.80;;;;;;;28.77;35.63;99673.25;5022076;28;20049;-44
2023/09/30 08:00:08;;;;;;;12.80;8.10;;;;;;;29.13;35.47;99669.16;4995354;28;20064;-49
2023/09/30 08:02:36;;;;;;;11.35;7.65;;;;;;;28.98;35.50;99668.19;5008963;28;20107;-43
2023/09/30 08:05:03;;;;;;;14.32;8.20;;;;;;;29.43;35.12;99672.94;5008324;28;20033;-47
2023/09/30 08:07:30;;;;;;;14.77;7.93;;;;;;;29.67;34.28;99655.91;5004961;28;20046;-44
2023/09/30 08:09:56;;;;;;;21.90;8.40;;;;;;;29.78;34.66;99672.41;5005765;28;20424;-51
2023/09/30 08:12:22;;;;;;;15.18;9.07;;;;;;;30.86;33.31;99659.75;5004948;28;20041;-42
2023/09/30 08:14:48;;;;;;;14.13;7.95;;;;;;;31.00;33.12;99666.97;5006904;28;20483;-44
2023/09/30 08:17:15;;;;;;;10.77;7.75;;;;;;;31.24;32.28;99670.47;5018471;28;20052;-48
2023/09/30 08:19:41;;;;;;;12.27;7.78;;;;;;;30.68;32.36;99659.25;5022588;28;20474;-45
2023/09/30 08:22:07;;;;;;;14.85;7.85;;;;;;;31.08;32.22;99645.47;5021427;28;20048;-46
2023/09/30 08:24:33;;;;;;;9.50;7.18;;;;;;;31.05;31.96;99659.22;5008154;28;20124;-45
2023/09/30 08:26:59;;;;;;;15.52;7.70;;;;;;;31.42;31.55;99655.59;5007089;28;20042;-46
2023/09/30 08:29:25;;;;;;;12.25;6.90;;;;;;;31.45;31.18;99657.09;5007380;28;20066;-48
2023/09/30 08:31:51;;;;;;;14.65;7.63;;;;;;;31.63;30.95;99649.50;5007896;28;20041;-53
2023/09/30 08:34:19;;;;;;;12.13;7.22;;;;;;;31.84;30.61;99660.28;5006469;28;20207;-49
2023/09/30 08:36:45;;;;;;;11.80;7.22;;;;;;;31.06;31.08;99619.78;5006909;28;20042;-49
2023/09/30 08:39:12;;;;;;;15.93;7.28;;;;;;;31.66;30.30;99648.28;5000273;28;20425;-44
2023/09/30 08:41:38;;;;;;;14.55;6.85;;;;;;;31.26;30.76;99639.69;4987148;28;20034;-45
2023/09/30 08:44:04;;;;;;;10.10;6.03;;;;;;;31.43;30.54;99640.31;4987307;28;20634;-47
2023/09/30 08:46:32;;;;;;;7.85;6.63;;;;;;;31.33;29.87;99631.72;5041066;28;20041;-46
2023/09/30 08:49:03;;;;;;;14.20;7.03;;;;;;;31.88;29.58;99609.63;5024303;28;20384;-44
2023/09/30 08:51:30;;;;;;;10.07;5.93;;;;;;;32.12;28.99;99636.22;5007990;28;20173;-43
2023/09/30 08:53:57;;;;;;;8.13;6.90;;;;;;;31.86;29.24;99627.84;5028191;28;20041;-46
2023/09/30 08:56:27;;;;;;;14.30;7.38;;;;;;;32.12;29.26;99627.31;5026966;28;20283;-47
2023/09/30 08:58:58;;;;;;;12.07;6.63;;;;;;;33.34;27.65;99615.97;5026960;28;20068;-43
2023/09/30 09:01:28;;;;;;;12.05;7.25;;;;;;;33.85;27.24;99634.47;5008197;28;20050;-45
2023/09/30 09:03:54;;;;;;;10.25;6.97;;;;;;;34.15;26.71;99613.31;5007921;28;20041;-47
2023/09/30 09:06:21;;;;;;;14.60;7.25;;;;;;;34.00;26.59;99644.03;5007254;28;20033;-45
2023/09/30 09:08:47;;;;;;;9.98;7.20;;;;;;;33.30;27.01;99624.66;5023821;28;20380;-47
2023/09/30 09:11:14;;;;;;;13.50;6.60;;;;;;;32.94;27.02;99587.16;5023176;28;20041;-47
2023/09/30 09:13:50;;;;;;;12.07;6.88;;;;;;;33.58;26.74;99611.94;4988775;28;20533;-47
2023/09/30 09:16:18;;;;;;;10.20;6.13;;;;;;;33.92;26.14;99613.69;4988821;28;20062;-45
2023/09/30 09:18:47;;;;;;;9.18;6.97;;;;;;;34.10;26.04;99594.22;4988581;28;20461;-45
2023/09/30 09:21:14;;;;;;;16.23;6.93;;;;;;;34.16;25.72;99615.81;4987647;28;20533;-43
2023/09/30 09:23:45;;;;;;;10.98;6.65;;;;;;;34.70;25.50;99604.03;4988942;28;20049;-45
2023/09/30 09:26:12;;;;;;;10.75;6.60;;;;;;;35.48;24.36;99588.63;4988720;28;20541;-47
2023/09/30 09:28:42;;;;;;;11.03;6.33;;;;;;;35.00;24.25;99583.59;4988565;28;20061;-43
2023/09/30 09:31:21;;;;;;;10.65;6.18;;;;;;;34.36;24.91;99623.97;5000705;28;20046;-45
2023/09/30 09:33:48;;;;;;;9.85;5.95;;;;;;;33.15;25.76;99570.88;5027402;28;20553;-45
2023/09/30 09:36:15;;;;;;;9.68;6.03;;;;;;;33.44;25.83;99605.69;5010286;28;20048;-45
2023/09/30 09:38:44;;;;;;;12.77;6.70;;;;;;;33.29;26.29;99602.28;5012070;28;20119;-44
2023/09/30 09:41:10;;;;;;;9.95;7.30;;;;;;;33.33;26.41;99602.72;5011442;28;20096;-44
2023/09/30 09:43:37;;;;;;;15.98;7.03;;;;;;;33.34;26.56;99609.78;5010558;28;20046;-43
2023/09/30 09:46:08;;;;;;;13.27;7.20;;;;;;;31.83;28.08;99588.69;5027947;28;20555;-43
2023/09/30 09:48:37;;;;;;;10.50;6.55;;;;;;;31.74;28.08;99594.41;5030323;28;20076;-44
2023/09/30 09:51:08;;;;;;;14.80;6.85;;;;;;;32.09;27.83;99598.88;5020343;28;20049;-44
2023/09/30 09:53:36;;;;;;;11.30;6.50;;;;;;;32.38;27.58;99581.78;5028933;28;20099;-44
2023/09/30 09:56:01;;;;;;;;;;;;;;;33.23;26.18;99584.25;5030500;28;20045;-47
2023/09/30 09:58:31;;;;;;;11.35;6.50;;;;;;;33.59;25.94;99583.94;5025121;28;20075;-47
2023/09/30 10:00:57;;;;;;;13.43;7.20;;;;;;;33.20;25.96;99582.75;5011144;28;20042;-45
2023/09/30 10:03:23;;;;;;;9.13;6.55;;;;;;;32.45;26.36;99579.16;5011694;28;20033;-45
2023/09/30 10:05:48;;;;;;;9.63;6.20;;;;;;;31.27;27.97;99562.59;5011038;28;20041;-43
2023/09/30 10:08:17;;;;;;;8.77;7.03;;;;;;;30.62;28.95;99576.75;5011105;28;20133;-46
2023/09/30 10:10:44;;;;;;;14.07;6.35;;;;;;;31.55;27.34;99564.41;5026458;28;20038;-45
2023/09/30 10:13:48;;;;;;;8.48;7.03;;;;;;;32.98;26.29;99566.84;5026591;28;20045;-46
2023/09/30 10:16:36;;;;;;;9.38;6.72;;;;;;;32.92;26.21;99555.03;5009358;28;20072;-44
2023/09/30 10:19:07;;;;;;;;;;;;;;;32.46;27.05;99584.31;5011636;28;20107;-45
2023/09/30 10:21:33;;;;;;;9.00;7.60;;;;;;;32.62;26.26;99570.56;5010743;28;19925;-50
2023/09/30 10:24:24;;;;;;;10.02;7.05;;;;;;;31.48;27.26;99566.16;5026462;28;20120;-46
2023/09/30 10:27:24;;;;;;;9.80;6.45;;;;;;;30.71;28.08;99575.69;4996762;28;20053;-46
2023/09/30 10:30:10;;;;;;;11.40;7.13;;;;;;;29.01;29.93;99550.88;4996148;28;20133;-47
2023/09/30 10:32:51;;;;;;;13.10;7.32;;;;;;;30.55;28.85;99560.59;5010722;28;20046;-43
2023/09/30 10:35:18;;;;;;;8.98;7.03;;;;;;;31.07;27.54;99522.91;5011213;28;20098;-45
2023/09/30 10:37:44;;;;;;;10.93;6.78;;;;;;;30.67;27.87;99571.72;5010451;28;20037;-44
2023/09/30 10:40:27;;;;;;;14.52;7.78;;;;;;;31.20;27.85;99554.47;5026244;28;20505;-45
2023/09/30 10:42:55;;;;;;;15.88;7.63;;;;;;;32.42;26.32;99558.81;4982366;28;20576;-47
2023/09/30 10:45:40;;;;;;;11.60;7.00;;;;;;;32.64;25.82;99543.44;5008999;28;20041;-45
2023/09/30 10:48:25;;;;;;;9.23;7.35;;;;;;;32.45;26.12;99571.88;5029310;28;20077;-44
2023/09/30 10:50:54;;;;;;;12.23;6.32;;;;;;;32.14;26.03;99536.44;5044697;28;20041;-46
2023/09/30 10:53:20;;;;;;;12.98;7.43;;;;;;;31.02;27.69;99557.56;5008762;28;20045;-44
2023/09/30 10:55:47;;;;;;;7.28;6.10;;;;;;;29.72;28.68;99516.84;5013960;28;20049;-48
2023/09/30 10:58:13;;;;;;;11.32;7.50;;;;;;;28.74;30.04;99513.84;5009341;28;20030;-45
2023/09/30 11:00:39;;;;;;;9.65;6.25;;;;;;;30.36;28.06;99536.91;4992867;28;20092;-45
2023/09/30 11:03:05;;;;;;;10.15;6.07;;;;;;;29.91;28.76;99518.22;4993135;28;20050;-45
2023/09/30 11:05:34;;;;;;;13.40;6.53;;;;;;;30.30;28.58;99535.00;5009445;28;20045;-46
2023/09/30 11:08:03;;;;;;;8.63;6.35;;;;;;;31.04;27.46;99530.50;4992702;28;20366;-43
2023/09/30 11:10:29;;;;;;;10.70;6.00;;;;;;;31.70;26.83;99517.84;5005798;28;20510;-43
2023/09/30 11:12:58;;;;;;;12.20;7.10;;;;;;;30.99;28.00;99525.66;4988653;28;20722;-44
2023/09/30 11:15:24;;;;;;;11.88;7.03;;;;;;;30.10;28.66;99525.75;5009198;28;20053;-45
2023/09/30 11:17:53;;;;;;;8.32;6.15;;;;;;;30.81;27.87;99524.41;5010437;28;20057;-46
2023/09/30 11:20:20;;;;;;;10.95;6.85;;;;;;;29.96;28.49;99513.16;5008961;28;20046;-44
2023/09/30 11:22:47;;;;;;;8.60;6.35;;;;;;;29.93;28.78;99510.84;5012824;28;20518;-44
2023/09/30 11:25:17;;;;;;;15.48;6.85;;;;;;;29.70;28.95;99513.50;4973451;28;20782;-46
2023/09/30 11:27:46;;;;;;;7.97;6.22;;;;;;;29.62;28.55;99463.50;5005411;28;20042;-44
2023/09/30 11:30:13;;;;;;;10.02;6.78;;;;;;;29.06;29.39;99494.97;4990651;28;20091;-45